createdAt,value
2023-03-10T10:13:14.721Z,15.93
2023-03-10T10:15:45.325Z,16.01
2023-03-10T10:18:19.704Z,16.11
2023-03-10T10:20:58.622Z,16.22
2023-03-10T10:23:41.009Z,16.34
2023-03-10T10:26:20.045Z,16.46
2023-03-10T10:46:34.105Z,16.83
2023-03-10T10:49:25.424Z,14.66
2023-03-10T10:51:57.099Z,12.79
2023-03-10T10:54:41.776Z,11.45
2023-03-10T10:57:35.325Z,10.30
2023-03-10T11:00:19.332Z,9.48
2023-03-10T11:02:50.351Z,8.78
2023-03-10T11:05:24.722Z,8.26
2023-03-10T11:07:51.767Z,7.86
2023-03-10T11:10:25.843Z,7.58
2023-03-10T11:13:19.385Z,7.36
2023-03-10T11:15:52.814Z,7.17
2023-03-10T11:18:45.260Z,7.07
2023-03-10T11:21:30.368Z,6.95
2023-03-10T11:24:20.579Z,6.83
2023-03-10T11:26:58.363Z,6.74
2023-03-10T11:29:33.934Z,6.64
2023-03-10T11:32:26.413Z,6.50
2023-03-10T11:34:57.745Z,6.48
2023-03-10T11:37:39.773Z,6.47
2023-03-10T11:40:27.210Z,6.51
2023-03-10T11:43:09.162Z,6.49
2023-03-10T11:45:52.137Z,6.50
2023-03-10T11:48:29.174Z,6.64
2023-03-10T11:50:59.684Z,6.77
2023-03-10T11:53:49.413Z,6.88
2023-03-10T11:56:19.842Z,6.95
2023-03-10T11:58:51.754Z,6.97
2023-03-10T12:01:42.827Z,6.98
2023-03-10T12:04:22.463Z,7.02
2023-03-10T12:06:56.597Z,7.07
2023-03-10T12:09:36.182Z,7.11
2023-03-10T12:12:03.035Z,7.07
2023-03-10T12:14:32.338Z,7.04
2023-03-10T12:17:00.576Z,7.04
2023-03-10T12:19:27.661Z,7.05
2023-03-10T12:22:41.707Z,7.06
2023-03-10T12:25:29.588Z,6.95
2023-03-10T12:28:16.174Z,6.83
2023-03-10T12:31:01.275Z,6.76
2023-03-10T12:33:33.570Z,6.70
2023-03-10T12:36:08.612Z,6.58
2023-03-10T12:38:59.685Z,6.44
2023-03-10T12:41:26.624Z,6.37
2023-03-10T12:43:59.729Z,6.39
2023-03-10T12:46:41.817Z,6.51
2023-03-10T12:49:30.419Z,6.71
2023-03-10T12:52:06.575Z,6.96
2023-03-10T12:55:01.394Z,7.18
2023-03-10T12:57:47.095Z,7.40
2023-03-10T13:00:20.050Z,7.62
2023-03-10T13:03:04.595Z,7.78
2023-03-10T13:05:34.580Z,7.92
2023-03-10T13:08:41.918Z,7.88
2023-03-10T13:11:17.845Z,7.76
2023-03-10T13:14:02.608Z,7.73
2023-03-10T13:16:29.684Z,7.66
2023-03-10T13:19:00.702Z,7.53
2023-03-10T13:21:32.402Z,7.38
2023-03-10T13:24:03.221Z,7.22
2023-03-10T13:26:30.093Z,7.06
2023-03-10T13:28:59.634Z,7.01
2023-03-10T13:31:33.226Z,6.98
2023-03-10T13:34:13.842Z,6.85
2023-03-10T13:36:41.824Z,6.65
2023-03-10T13:39:12.780Z,6.57
2023-03-10T13:41:40.191Z,6.58
2023-03-10T13:44:15.896Z,6.63
2023-03-10T13:46:49.699Z,6.71
2023-03-10T13:49:17.576Z,6.73
2023-03-10T13:51:56.115Z,6.73
2023-03-10T13:54:29.146Z,6.66
2023-03-10T13:57:08.340Z,6.54
2023-03-10T13:59:35.017Z,6.43
2023-03-10T14:02:01.682Z,6.37
2023-03-10T14:04:51.760Z,6.33
2023-03-10T14:07:23.578Z,6.27
2023-03-10T14:10:03.074Z,6.19
2023-03-10T14:12:37.193Z,6.13
2023-03-10T14:15:14.632Z,6.07
2023-03-10T14:17:42.575Z,5.98
2023-03-10T14:20:33.270Z,5.89
2023-03-10T14:23:25.286Z,5.83
2023-03-10T14:25:53.573Z,5.78
2023-03-10T14:28:25.671Z,5.72
2023-03-10T14:30:52.421Z,5.64
2023-03-10T14:33:20.170Z,5.57
2023-03-10T14:35:46.830Z,5.44
2023-03-10T14:38:13.821Z,5.34
2023-03-10T14:40:47.278Z,5.26
2023-03-10T14:43:20.021Z,5.18
2023-03-10T14:45:47.956Z,5.11
2023-03-10T14:48:18.543Z,5.05
2023-03-10T14:50:45.832Z,5.00
2023-03-10T14:53:15.685Z,4.97
2023-03-10T14:55:43.151Z,4.94
2023-03-10T14:58:20.472Z,4.91
2023-03-10T15:00:47.304Z,4.86
2023-03-10T15:03:14.716Z,4.80
2023-03-10T15:05:48.572Z,4.76
2023-03-10T15:08:19.008Z,4.71
2023-03-10T15:10:49.904Z,4.67
2023-03-10T15:13:18.032Z,4.63
2023-03-10T15:15:45.850Z,4.59
2023-03-10T15:18:14.416Z,4.56
2023-03-10T15:20:42.470Z,4.54
2023-03-10T15:23:16.057Z,4.52
2023-03-10T15:25:46.000Z,4.50
2023-03-10T15:28:13.220Z,4.46
2023-03-10T15:30:40.519Z,4.41
2023-03-10T15:33:07.517Z,4.36
2023-03-10T15:35:35.029Z,4.31
2023-03-10T15:38:02.133Z,4.26
2023-03-10T15:40:30.627Z,4.21
2023-03-10T15:42:57.761Z,4.15
2023-03-10T15:45:25.524Z,4.11
2023-03-10T15:47:52.328Z,4.06
2023-03-10T15:50:20.064Z,4.02
2023-03-10T15:52:51.568Z,3.97
2023-03-10T15:55:18.754Z,3.92
2023-03-10T15:57:47.726Z,3.86
2023-03-10T16:00:16.404Z,3.82
2023-03-10T16:02:44.517Z,3.79
2023-03-10T16:05:11.398Z,3.74
2023-03-10T16:07:38.293Z,3.71
2023-03-10T16:10:05.749Z,3.67
2023-03-10T16:12:32.596Z,3.63
2023-03-10T16:15:01.928Z,3.59
2023-03-10T16:17:29.302Z,3.54
2023-03-10T16:19:56.248Z,3.48
2023-03-10T16:22:22.810Z,3.44
2023-03-10T16:24:49.465Z,3.40
2023-03-10T16:27:19.455Z,3.36
2023-03-10T16:29:46.290Z,3.33
2023-03-10T16:32:14.419Z,3.29
2023-03-10T16:34:42.356Z,3.25
2023-03-10T16:37:09.336Z,3.21
2023-03-10T16:39:36.805Z,3.16
2023-03-10T16:42:05.639Z,3.12
2023-03-10T16:44:32.347Z,3.10
2023-03-10T16:46:58.979Z,3.08
2023-03-10T16:49:25.692Z,3.07
2023-03-10T16:51:52.330Z,3.06
2023-03-10T16:54:23.256Z,3.05
2023-03-10T16:56:52.161Z,3.05
2023-03-10T16:59:20.926Z,3.05
2023-03-10T17:01:48.435Z,3.03
2023-03-10T17:04:15.344Z,3.02
2023-03-10T17:06:42.379Z,3.01
2023-03-10T17:09:10.722Z,3.00
2023-03-10T17:11:40.066Z,2.99
2023-03-10T17:14:14.438Z,2.98
2023-03-10T17:16:42.871Z,2.97
2023-03-10T17:19:14.761Z,2.96
2023-03-10T17:21:48.640Z,2.96
2023-03-10T17:24:18.511Z,2.95
2023-03-10T17:26:45.772Z,2.95
2023-03-10T17:29:12.904Z,2.96
2023-03-10T17:31:48.293Z,2.97
2023-03-10T17:34:15.184Z,2.97
2023-03-10T17:36:42.176Z,2.97
2023-03-10T17:39:15.506Z,2.97
2023-03-10T17:41:42.274Z,2.97
2023-03-10T17:44:10.918Z,2.96
2023-03-10T17:46:40.365Z,2.94
2023-03-10T17:49:10.588Z,2.93
2023-03-10T17:51:39.148Z,2.90
2023-03-10T17:54:07.222Z,2.89
2023-03-10T17:56:34.665Z,2.87
2023-03-10T17:59:01.249Z,2.85
2023-03-10T18:01:28.932Z,2.82
2023-03-10T18:03:56.738Z,2.79
2023-03-10T18:06:25.459Z,2.76
2023-03-10T18:08:55.982Z,2.73
2023-03-10T18:11:23.923Z,2.70
2023-03-10T18:13:50.859Z,2.68
2023-03-10T18:16:23.426Z,2.66
2023-03-10T18:18:50.104Z,2.64
2023-03-10T18:21:17.538Z,2.63
2023-03-10T18:23:47.840Z,2.62
2023-03-10T18:26:19.492Z,2.60
2023-03-10T18:28:46.252Z,2.59
2023-03-10T18:31:33.960Z,2.58
2023-03-10T18:34:03.289Z,2.56
2023-03-10T18:36:30.333Z,2.52
2023-03-10T18:39:01.809Z,2.50
2023-03-10T18:41:31.285Z,2.48
2023-03-10T18:43:59.432Z,2.46
2023-03-10T18:46:26.537Z,2.43
2023-03-10T18:48:55.282Z,2.42
2023-03-10T18:51:25.983Z,2.41
2023-03-10T18:53:52.998Z,2.40
2023-03-10T18:56:28.416Z,2.38
2023-03-10T18:58:55.664Z,2.37
2023-03-10T19:01:22.372Z,2.36
2023-03-10T19:03:49.365Z,2.34
2023-03-10T19:06:16.305Z,2.32
2023-03-10T19:08:44.076Z,2.29
2023-03-10T19:11:11.529Z,2.28
2023-03-10T19:13:43.641Z,2.26
2023-03-10T19:16:11.442Z,2.24
2023-03-10T19:18:38.984Z,2.22
2023-03-10T19:21:06.346Z,2.18
2023-03-10T19:23:34.304Z,2.15
2023-03-10T19:26:01.608Z,2.12
2023-03-10T19:28:29.231Z,2.09
2023-03-10T19:30:55.953Z,2.06
2023-03-10T19:33:24.706Z,2.02
2023-03-10T19:36:00.513Z,1.98
2023-03-10T19:38:27.685Z,1.95
2023-03-10T19:40:54.375Z,1.91
2023-03-10T19:43:21.602Z,1.88
2023-03-10T19:45:48.269Z,1.86
2023-03-10T19:48:14.942Z,1.84
2023-03-10T19:50:42.009Z,1.81
2023-03-10T19:53:08.961Z,1.78
2023-03-10T19:55:37.600Z,1.74
2023-03-10T19:58:04.461Z,1.72
2023-03-10T20:00:35.407Z,1.70
2023-03-10T20:03:02.323Z,1.68
2023-03-10T20:05:29.332Z,1.65
2023-03-10T20:07:56.254Z,1.63
2023-03-10T20:10:23.043Z,1.63
2023-03-10T20:12:52.846Z,1.61
2023-03-10T20:15:22.068Z,1.59
2023-03-10T20:17:50.964Z,1.58
2023-03-10T20:20:19.674Z,1.57
2023-03-10T20:22:48.609Z,1.56
2023-03-10T20:25:17.389Z,1.56
2023-03-10T20:27:45.110Z,1.53
2023-03-10T20:30:15.067Z,1.54
2023-03-10T20:32:42.072Z,1.53
2023-03-10T20:35:08.822Z,1.54
2023-03-10T20:37:37.864Z,1.54
2023-03-10T20:40:09.358Z,1.53
2023-03-10T20:42:36.516Z,1.52
2023-03-10T20:45:04.356Z,1.52
2023-03-10T20:47:33.363Z,1.52
2023-03-10T20:50:00.523Z,1.53
2023-03-10T20:52:27.199Z,1.53
2023-03-10T20:54:53.910Z,1.53
2023-03-10T20:57:20.839Z,1.54
2023-03-10T20:59:48.111Z,1.54
2023-03-10T21:02:15.177Z,1.54
2023-03-10T21:04:42.261Z,1.54
2023-03-10T21:07:09.208Z,1.54
2023-03-10T21:09:36.981Z,1.52
2023-03-10T21:12:03.841Z,1.51
2023-03-10T21:14:31.521Z,1.51
2023-03-10T21:16:59.259Z,1.50
2023-03-10T21:19:29.321Z,1.48
2023-03-10T21:21:56.010Z,1.48
2023-03-10T21:24:23.398Z,1.47
2023-03-10T21:26:51.143Z,1.47
2023-03-10T21:29:17.742Z,1.46
2023-03-10T21:31:49.310Z,1.45
2023-03-10T21:34:16.137Z,1.46
2023-03-10T21:36:42.833Z,1.47
2023-03-10T21:39:09.503Z,1.47
2023-03-10T21:41:36.551Z,1.50
2023-03-10T21:44:03.532Z,1.52
2023-03-10T21:46:30.782Z,1.57
2023-03-10T21:48:57.413Z,1.61
2023-03-10T21:51:24.510Z,1.65
2023-03-10T21:53:54.090Z,1.69
2023-03-10T21:56:22.159Z,1.72
2023-03-10T21:58:49.251Z,1.76
2023-03-10T22:01:17.702Z,1.79
2023-03-10T22:03:44.932Z,1.81
2023-03-10T22:06:11.907Z,1.82
2023-03-10T22:08:38.582Z,1.83
2023-03-10T22:11:06.767Z,1.83
2023-03-10T22:13:35.639Z,1.84
2023-03-10T22:16:03.622Z,1.84
2023-03-10T22:18:32.734Z,1.85
2023-03-10T22:20:59.588Z,1.86
2023-03-10T22:23:26.435Z,1.87
2023-03-10T22:25:55.103Z,1.89
2023-03-10T22:28:22.201Z,1.92
2023-03-10T22:30:53.098Z,1.95
2023-03-10T22:33:20.320Z,1.98
2023-03-10T22:35:51.707Z,2.03
2023-03-10T22:38:19.812Z,2.07
2023-03-10T22:40:46.985Z,2.12
2023-03-10T22:43:14.292Z,2.18
2023-03-10T22:45:41.310Z,2.23
2023-03-10T22:48:10.514Z,2.26
2023-03-10T22:50:43.066Z,2.31
2023-03-10T22:53:13.341Z,2.36
2023-03-10T22:55:41.970Z,2.41
2023-03-10T22:58:10.418Z,2.46
2023-03-10T23:00:37.811Z,2.51
2023-03-10T23:03:05.196Z,2.55
2023-03-10T23:05:32.444Z,2.58
2023-03-10T23:08:05.133Z,2.60
2023-03-10T23:10:33.964Z,2.61
2023-03-10T23:13:03.138Z,2.64
2023-03-10T23:15:32.899Z,2.64
2023-03-10T23:17:59.863Z,2.65
2023-03-10T23:20:28.790Z,2.64
2023-03-10T23:22:58.020Z,2.64
2023-03-10T23:25:35.795Z,2.63
2023-03-10T23:28:02.971Z,2.61
2023-03-10T23:30:29.895Z,2.59
2023-03-10T23:32:56.646Z,2.58
2023-03-10T23:35:25.798Z,2.57
2023-03-10T23:37:52.827Z,2.54
2023-03-10T23:40:20.505Z,2.52
2023-03-10T23:42:47.389Z,2.49
2023-03-10T23:45:15.947Z,2.48
2023-03-10T23:47:43.376Z,2.48
2023-03-10T23:50:33.981Z,2.47
2023-03-10T23:53:03.124Z,2.45
2023-03-10T23:55:31.806Z,2.43
2023-03-10T23:57:59.225Z,2.41
